»·PEaware :: HAL16 PHNL-KSAN

HAL16 :: PHNL-KSAN

FLIGHT INFORMATION

Flight Status: Arrived
Operator:
Hawaiian Airlines
More flights by this operator :: More flights under this callsign
Pilot: Justin U. (116)
Aircraft: BOEING 767-300
(B763)
More flights by this aircraft type
Origin: PHNL Honolulu Intl
United States
Destination: KSAN San Diego Intl-Lindbergh
United States
More flights between these airports :: More routes between these airports
Route: +MKK4 EBBER R577 ELOYI R577 ELKEY SXC HUBRD1
File this flight plan on PilotEdge
Remarks: SEL / KMCS / V /
Altitude:
(Current/Filed)
35,000ft
Speed:
(Current/Filed)
466kts
Departed: 26-Apr-12 08:25 PM
Arrived: 26-Apr-12 10:00 PM
Distance/Time
Traveled:
2266nm/1:34
Distance/Time
To Go:
Arrived

Flight Plot

Page will automatically refresh every two minutes.


Map Options




Map Legend


Flown Route
Filed Route
Departure Airport
Arrival Airport
Navaid (VOR, NDB)
Fix

Horizontal Profiles

Position Reports

Time Latitude Longitude Heading Altitude Ground
Speed
26-Apr-12 20:23 30.760662 -129.980411 71 35767ft 469kts
26-Apr-12 20:24 30.801322 -129.836796 71 36687ft 462kts
26-Apr-12 20:25 30.840114 -129.693436 72 37021ft 467kts
26-Apr-12 20:26 30.880431 -129.548463 71 37021ft 471kts
26-Apr-12 20:27 30.920503 -129.402822 72 37016ft 472kts
26-Apr-12 20:28 30.960312 -129.256314 71 37022ft 473kts
26-Apr-12 20:29 31.000289 -129.109578 72 37010ft 474kts
26-Apr-12 20:30 31.039693 -128.961280 71 37009ft 483kts
26-Apr-12 20:31 31.079319 -128.810881 70 37008ft 483kts
26-Apr-12 20:32 31.120427 -128.661311 71 37007ft 483kts
26-Apr-12 20:33 31.160855 -128.511754 70 37006ft 481kts
26-Apr-12 20:34 31.200029 -128.361883 71 37006ft 481kts
26-Apr-12 20:35 31.239879 -128.212791 71 37005ft 481kts
26-Apr-12 20:36 31.278628 -128.062623 71 37028ft 481kts
26-Apr-12 20:37 31.318208 -127.912463 72 37068ft 483kts
26-Apr-12 20:38 31.356578 -127.761434 71 37068ft 483kts
26-Apr-12 20:39 31.396434 -127.610311 72 37067ft 483kts
26-Apr-12 20:40 31.434373 -127.459047 71 37077ft 483kts
26-Apr-12 20:41 31.473669 -127.308478 72 37089ft 482kts
26-Apr-12 20:42 31.511047 -127.156886 72 37088ft 484kts
26-Apr-12 20:43 31.550116 -127.005485 72 37087ft 486kts
26-Apr-12 20:44 31.587876 -126.852683 72 37086ft 487kts
26-Apr-12 20:45 31.625475 -126.699514 72 37085ft 489kts
26-Apr-12 20:46 31.663715 -126.545840 72 37085ft 489kts
26-Apr-12 20:47 31.702764 -126.391802 71 37085ft 492kts
26-Apr-12 20:48 31.740094 -126.236686 72 37084ft 492kts
26-Apr-12 20:49 31.778806 -126.079165 71 37084ft 492kts
26-Apr-12 20:50 31.816624 -125.924114 73 37086ft 492kts
26-Apr-12 20:51 31.853037 -125.768442 72 37084ft 492kts
26-Apr-12 20:52 31.891156 -125.613314 72 37083ft 492kts
26-Apr-12 20:53 31.928095 -125.458221 73 37082ft 493kts
26-Apr-12 20:54 31.964027 -125.302141 73 37081ft 493kts
26-Apr-12 20:55 32.001073 -125.146372 72 37079ft 493kts
26-Apr-12 20:56 32.038598 -124.990713 73 37079ft 493kts
26-Apr-12 20:57 32.073709 -124.834152 73 37078ft 493kts
26-Apr-12 20:58 32.103963 -124.703814 72 37077ft 493kts
26-Apr-12 20:59 32.140956 -124.547708 73 37076ft 493kts
26-Apr-12 21:00 32.175758 -124.390954 73 37089ft 492kts
26-Apr-12 21:01 32.212024 -124.234947 73 37095ft 491kts
26-Apr-12 21:02 32.246741 -124.078576 73 37157ft 497kts
26-Apr-12 21:03 32.280096 -123.918603 74 37168ft 501kts
26-Apr-12 21:04 32.312736 -123.758118 74 37167ft 501kts
26-Apr-12 21:05 32.346697 -123.597937 74 37166ft 501kts
26-Apr-12 21:06 32.378706 -123.437078 75 37164ft 501kts
26-Apr-12 21:07 32.411046 -123.276354 74 37165ft 501kts
26-Apr-12 21:08 32.444324 -123.116025 74 37174ft 499kts
26-Apr-12 21:09 32.476320 -122.955852 73 37173ft 498kts
26-Apr-12 21:10 32.513299 -122.797909 72 37172ft 498kts
26-Apr-12 21:11 32.550376 -122.639561 71 37173ft 500kts
26-Apr-12 21:12 32.587287 -122.479462 72 37189ft 503kts
26-Apr-12 21:13 32.623136 -122.318454 71 37198ft 503kts
26-Apr-12 21:14 32.660153 -122.158215 72 37184ft 502kts
26-Apr-12 21:15 32.694838 -121.998260 73 37185ft 500kts
26-Apr-12 21:16 32.727721 -121.837331 73 37182ft 501kts
26-Apr-12 21:17 32.761111 -121.676376 73 37180ft 501kts
26-Apr-12 21:18 32.792914 -121.514623 73 37178ft 501kts
26-Apr-12 21:19 32.826245 -121.353329 74 37178ft 502kts
26-Apr-12 21:20 32.857480 -121.191746 74 37176ft 502kts
26-Apr-12 21:21 32.890287 -121.030105 73 37172ft 501kts
26-Apr-12 21:22 32.921561 -120.868327 74 37171ft 500kts
26-Apr-12 21:23 32.953313 -120.706909 73 37170ft 499kts
26-Apr-12 21:24 32.984730 -120.545480 74 37162ft 499kts
26-Apr-12 21:25 33.015267 -120.383881 73 37160ft 500kts
26-Apr-12 21:26 33.047055 -120.222696 74 37159ft 500kts
26-Apr-12 21:27 33.077364 -120.060508 74 37157ft 500kts
26-Apr-12 21:28 33.108243 -119.898100 74 37155ft 502kts
26-Apr-12 21:29 33.137955 -119.735119 74 37152ft 501kts
26-Apr-12 21:30 33.168893 -119.572767 74 37151ft 501kts
26-Apr-12 21:31 33.197966 -119.409249 74 37151ft 502kts
26-Apr-12 21:32 33.228636 -119.246181 74 37153ft 503kts
26-Apr-12 21:33 33.257656 -119.082098 74 37148ft 504kts
26-Apr-12 21:34 33.286057 -118.918220 74 37147ft 504kts
26-Apr-12 21:35 33.316048 -118.754940 74 37095ft 483kts
26-Apr-12 21:36 33.343153 -118.598450 75 34790ft 486kts
26-Apr-12 21:37 33.371774 -118.438686 75 31725ft 492kts
26-Apr-12 21:38 33.357149 -118.274640 100 31162ft 502kts
26-Apr-12 21:39 33.332877 -118.109262 97 28253ft 505kts
26-Apr-12 21:40 33.311736 -117.945860 97 24222ft 484kts
26-Apr-12 21:41 33.290345 -117.794136 97 21668ft 450kts
26-Apr-12 21:42 33.269656 -117.648022 97 19439ft 439kts
26-Apr-12 21:43 33.222321 -117.519567 138 17237ft 426kts
26-Apr-12 21:44 33.137860 -117.425719 138 15217ft 389kts
26-Apr-12 21:45 33.049305 -117.369394 159 13336ft 344kts
26-Apr-12 21:46 32.963687 -117.325258 159 11089ft 327kts
26-Apr-12 21:47 32.882222 -117.281568 156 8779ft 316kts
26-Apr-12 21:48 32.836026 -117.219044 105 7184ft 310kts
26-Apr-12 21:50 32.796053 -117.036327 103 5081ft 270kts
26-Apr-12 21:51 32.778607 -116.958012 103 5033ft 231kts
26-Apr-12 21:52 32.748375 -116.895295 165 4981ft 228kts
26-Apr-12 21:53 32.689854 -116.904696 217 4197ft 188kts
26-Apr-12 21:54 32.678472 -116.957933 279 3767ft 175kts
26-Apr-12 21:55 32.689919 -117.012074 285 3209ft 170kts
26-Apr-12 21:56 32.702702 -117.062396 285 2182ft 155kts
26-Apr-12 21:57 32.714301 -117.110268 285 1683ft 152kts
26-Apr-12 21:58 32.726059 -117.158669 284 535ft 146kts
26-Apr-12 21:59 32.734476 -117.193493 278 29ft 23kts
26-Apr-12 22:00 32.734657 -117.198585 291 29ft 22kts
26-Apr-12 22:01 32.732586 -117.200476 237 29ft 0kts
26-Apr-12 22:02 32.732584 -117.200479 237 29ft 0kts
26-Apr-12 22:03 32.732584 -117.200480 237 29ft 0kts
26-Apr-12 22:04 32.732584 -117.200480 237 29ft 0kts
26-Apr-12 22:05 32.732584 -117.200480 237 29ft 0kts

Navigation Log

Ident Type
1. PHNL Airport
2. BLUSH Fix
3. SESXI Fix
4. ALICA Fix
5. EBBER Fix
6. ELOYI Fix
7. ERROT Fix
8. ETNIC Fix
9. ETECO Fix
10. EDSEL Fix
11. EDTOO Fix
12. ELKEY Fix
13. SXC Navaid
14. HUBRD Fix
15. CARDI Fix
16. TORIE Fix
17. KSAN Airport